createdAt,value
2023-02-25T00:01:07.908Z,97893.17
2023-02-25T00:03:36.227Z,97896.65
2023-02-25T00:06:04.566Z,97891.66
2023-02-25T00:08:31.762Z,97892.83
2023-02-25T00:11:00.798Z,97887.02
2023-02-25T00:13:28.020Z,97884.70
2023-02-25T00:15:58.192Z,97886.36
2023-02-25T00:18:26.885Z,97881.27
2023-02-25T00:20:54.078Z,97879.30
2023-02-25T00:23:20.908Z,97878.31
2023-02-25T00:25:47.706Z,97875.64
2023-02-25T00:28:17.870Z,97870.50
2023-02-25T00:30:44.817Z,97864.99
2023-02-25T00:33:11.917Z,97860.50
2023-02-25T00:35:39.883Z,97862.40
2023-02-25T00:38:15.759Z,97861.70
2023-02-25T00:40:46.020Z,97862.63
2023-02-25T00:43:13.373Z,97858.78
2023-02-25T00:45:40.797Z,97857.11
2023-02-25T00:48:07.945Z,97857.34
2023-02-25T00:50:36.101Z,97852.97
2023-02-25T00:53:03.481Z,97848.62
2023-02-25T00:55:36.262Z,97841.94
2023-02-25T00:58:03.216Z,97839.16
2023-02-25T01:00:31.558Z,97840.87
2023-02-25T01:03:00.946Z,97839.05
2023-02-25T01:05:27.831Z,97834.95
2023-02-25T01:07:54.698Z,97832.84
2023-02-25T01:10:22.216Z,97831.17
2023-02-25T01:12:54.928Z,97826.98
2023-02-25T01:15:21.571Z,97826.58
2023-02-25T01:17:48.268Z,97823.41
2023-02-25T01:20:19.388Z,97816.52
2023-02-25T01:22:46.294Z,97813.95
2023-02-25T01:25:17.085Z,97811.95
2023-02-25T01:27:44.164Z,97812.34
2023-02-25T01:30:11.576Z,97807.65
2023-02-25T01:32:38.364Z,97804.36
2023-02-25T01:35:06.000Z,97795.63
2023-02-25T01:37:35.670Z,97791.66
2023-02-25T01:40:04.402Z,97791.58
2023-02-25T01:42:33.236Z,97791.78
2023-02-25T01:45:21.725Z,97783.17
2023-02-25T01:47:56.585Z,97787.59
2023-02-25T01:50:28.466Z,97781.73
2023-02-25T01:52:55.155Z,97775.48
2023-02-25T01:55:22.051Z,97772.73
2023-02-25T01:57:49.889Z,97762.88
2023-02-25T02:00:16.918Z,97760.92
2023-02-25T02:02:46.757Z,97761.59
2023-02-25T02:05:14.701Z,97759.29
2023-02-25T02:07:42.181Z,97761.30
2023-02-25T02:10:11.651Z,97753.64
2023-02-25T02:12:41.364Z,97753.38
2023-02-25T02:15:10.522Z,97755.75
2023-02-25T02:17:43.260Z,97756.95
2023-02-25T02:20:12.415Z,97751.52
2023-02-25T02:23:04.462Z,97750.84
2023-02-25T02:26:00.781Z,97749.67
2023-02-25T02:28:52.195Z,97748.81
2023-02-25T02:31:28.100Z,97749.27
2023-02-25T02:34:19.299Z,97741.08
2023-02-25T02:37:11.530Z,97741.63
2023-02-25T02:40:08.987Z,97743.16
2023-02-25T02:42:51.657Z,97743.14
2023-02-25T02:45:20.476Z,97743.88
2023-02-25T02:47:50.992Z,97737.10
2023-02-25T02:50:38.330Z,97728.75
2023-02-25T02:53:13.975Z,97722.17
2023-02-25T02:55:48.076Z,97722.73
2023-02-25T02:58:21.681Z,97713.66
2023-02-25T03:00:50.334Z,97709.40
2023-02-25T03:03:20.068Z,97707.06
2023-02-25T03:05:49.273Z,97712.52
2023-02-25T03:08:20.205Z,97703.63
2023-02-25T03:10:46.994Z,97704.73
2023-02-25T03:13:15.347Z,97708.83
2023-02-25T03:15:42.030Z,97704.17
2023-02-25T03:18:30.799Z,97701.34
2023-02-25T03:20:57.738Z,97699.02
2023-02-25T03:23:32.056Z,97697.39
2023-02-25T03:26:11.503Z,97693.18
2023-02-25T03:28:38.147Z,97686.30
2023-02-25T03:31:11.022Z,97683.42
2023-02-25T03:33:48.199Z,97682.53
2023-02-25T03:36:33.784Z,97674.94
2023-02-25T03:39:09.289Z,97682.95
2023-02-25T03:41:38.587Z,97691.23
2023-02-25T03:44:08.362Z,97699.67
2023-02-25T03:46:37.763Z,97697.27
2023-02-25T03:49:05.661Z,97685.63
2023-02-25T03:51:35.519Z,97679.42
2023-02-25T03:54:02.485Z,97672.80
2023-02-25T03:56:49.601Z,97667.67
2023-02-25T03:59:17.854Z,97667.38
2023-02-25T04:01:48.201Z,97665.02
2023-02-25T04:04:14.836Z,97664.41
2023-02-25T04:06:44.716Z,97665.24
2023-02-25T04:09:13.463Z,97662.45
2023-02-25T04:11:41.160Z,97657.52
2023-02-25T04:14:07.943Z,97654.13
2023-02-25T04:16:39.340Z,97652.58
2023-02-25T04:19:08.364Z,97650.63
2023-02-25T04:21:36.250Z,97647.92
2023-02-25T04:24:06.123Z,97642.27
2023-02-25T04:26:33.721Z,97646.33
2023-02-25T04:29:03.436Z,97639.75
2023-02-25T04:31:30.622Z,97643.87
2023-02-25T04:33:57.611Z,97643.46
2023-02-25T04:36:26.486Z,97640.98
2023-02-25T04:38:53.338Z,97630.58
2023-02-25T04:41:20.020Z,97622.39
2023-02-25T04:43:46.735Z,97614.36
2023-02-25T04:46:13.558Z,97612.77
2023-02-25T04:48:40.498Z,97609.92
2023-02-25T04:51:07.285Z,97606.94
2023-02-25T04:53:34.402Z,97611.30
2023-02-25T04:56:03.021Z,97601.55
2023-02-25T04:58:32.536Z,97604.52
2023-02-25T05:01:03.430Z,97596.38
2023-02-25T05:03:30.709Z,97602.71
2023-02-25T05:05:58.481Z,97608.02
2023-02-25T05:08:28.611Z,97616.48
2023-02-25T05:10:55.245Z,97615.23
2023-02-25T05:13:22.183Z,97607.33
2023-02-25T05:16:08.916Z,97615.90
2023-02-25T05:18:39.755Z,97615.55
2023-02-25T05:21:11.689Z,97619.21
2023-02-25T05:23:39.316Z,97622.37
2023-02-25T05:26:06.089Z,97627.60
2023-02-25T05:28:33.461Z,97622.54
2023-02-25T05:31:03.406Z,97621.75
2023-02-25T05:33:36.131Z,97621.52
2023-02-25T05:36:07.775Z,97618.44
2023-02-25T05:38:34.528Z,97626.94
2023-02-25T05:41:01.246Z,97629.02
2023-02-25T05:43:27.922Z,97633.62
2023-02-25T05:45:59.313Z,97637.88
2023-02-25T05:48:25.909Z,97635.85
2023-02-25T05:51:03.363Z,97628.05
2023-02-25T05:53:30.828Z,97614.00
2023-02-25T05:55:57.564Z,97610.66
2023-02-25T05:58:25.201Z,97607.52
2023-02-25T06:00:54.096Z,97596.88
2023-02-25T06:03:20.927Z,97597.31
2023-02-25T06:05:48.097Z,97594.55
2023-02-25T06:08:15.255Z,97596.56
2023-02-25T06:10:41.869Z,97602.79
2023-02-25T06:13:08.890Z,97600.14
2023-02-25T06:15:39.676Z,97599.40
2023-02-25T06:18:13.571Z,97584.55
2023-02-25T06:20:40.221Z,97579.55
2023-02-25T06:23:06.912Z,97575.29
2023-02-25T06:25:33.604Z,97565.52
2023-02-25T06:28:00.846Z,97555.12
2023-02-25T06:30:28.816Z,97538.88
2023-02-25T06:32:56.745Z,97537.69
2023-02-25T06:35:23.717Z,97534.36
2023-02-25T06:37:55.898Z,97539.27
2023-02-25T06:40:22.891Z,97538.90
2023-02-25T06:42:55.178Z,97538.75
2023-02-25T06:45:23.475Z,97535.02
2023-02-25T06:47:50.204Z,97526.45
2023-02-25T06:50:17.006Z,97536.13
2023-02-25T06:52:43.776Z,97532.99
2023-02-25T06:55:10.464Z,97539.17
2023-02-25T06:57:38.586Z,97538.84
2023-02-25T07:00:06.908Z,97529.64
2023-02-25T07:02:34.772Z,97534.89
2023-02-25T07:05:02.259Z,97531.52
2023-02-25T07:07:29.298Z,97536.06
2023-02-25T07:09:56.121Z,97533.86
2023-02-25T07:12:25.823Z,97522.05
2023-02-25T07:14:52.639Z,97519.67
2023-02-25T07:17:19.512Z,97514.69
2023-02-25T07:19:46.784Z,97514.38
2023-02-25T07:22:15.761Z,97503.08
2023-02-25T07:24:43.200Z,97499.05
2023-02-25T07:27:12.661Z,97497.65
2023-02-25T07:29:39.640Z,97490.90
2023-02-25T07:32:08.588Z,97479.58
2023-02-25T07:34:38.514Z,97486.98
2023-02-25T07:37:05.595Z,97484.75
2023-02-25T07:39:32.517Z,97480.39
2023-02-25T07:42:00.817Z,97476.25
2023-02-25T07:44:28.956Z,97476.98
2023-02-25T07:46:55.603Z,97477.89
2023-02-25T07:49:24.727Z,97479.77
2023-02-25T07:51:52.279Z,97479.09
2023-02-25T07:54:21.051Z,97476.01
2023-02-25T07:56:50.856Z,97474.45
2023-02-25T07:59:18.655Z,97471.25
2023-02-25T08:01:45.408Z,97473.29
2023-02-25T08:04:12.104Z,97470.73
2023-02-25T08:06:39.573Z,97467.56
2023-02-25T08:09:10.486Z,97467.87
2023-02-25T08:11:37.603Z,97461.14
2023-02-25T08:14:05.315Z,97461.41
2023-02-25T08:16:32.327Z,97462.52
2023-02-25T08:18:59.230Z,97457.64
2023-02-25T08:21:26.455Z,97453.85
2023-02-25T08:23:54.664Z,97447.80
2023-02-25T08:26:21.979Z,97444.64
2023-02-25T08:28:49.700Z,97444.84
2023-02-25T08:31:17.301Z,97443.61
2023-02-25T08:33:48.813Z,97443.34
2023-02-25T08:36:20.263Z,97445.23
2023-02-25T08:38:47.455Z,97440.51
2023-02-25T08:41:14.143Z,97435.98
2023-02-25T08:43:41.034Z,97440.81
2023-02-25T08:46:07.844Z,97436.95
2023-02-25T08:48:36.095Z,97431.17
2023-02-25T08:51:07.733Z,97426.05
2023-02-25T08:53:38.971Z,97422.85
2023-02-25T08:56:11.084Z,97411.56
2023-02-25T08:58:38.891Z,97401.79
2023-02-25T09:01:13.111Z,97401.73
2023-02-25T09:04:02.719Z,97388.98
2023-02-25T09:06:29.778Z,97381.27
2023-02-25T09:08:57.277Z,97377.17
2023-02-25T09:11:25.500Z,97370.76
2023-02-25T09:13:53.871Z,97372.59
2023-02-25T09:16:20.758Z,97354.11
2023-02-25T09:18:48.525Z,97350.89
2023-02-25T09:21:15.618Z,97350.17
2023-02-25T09:23:43.178Z,97353.14
2023-02-25T09:26:09.906Z,97349.94
2023-02-25T09:28:36.631Z,97348.59
2023-02-25T09:31:03.911Z,97342.41
2023-02-25T09:33:31.969Z,97335.14
2023-02-25T09:36:09.378Z,97324.31
2023-02-25T09:38:36.684Z,97316.27
2023-02-25T09:41:10.636Z,97305.20
2023-02-25T09:43:39.660Z,97297.05
2023-02-25T09:46:09.375Z,97289.71
2023-02-25T09:48:39.249Z,97282.14
2023-02-25T09:51:23.596Z,97279.06
2023-02-25T09:54:17.887Z,97274.51
2023-02-25T09:56:44.873Z,97271.32
2023-02-25T09:59:14.770Z,97265.89
2023-02-25T10:02:20.004Z,97271.18
2023-02-25T10:05:23.872Z,97256.91
2023-02-25T10:08:09.540Z,97247.31
2023-02-25T10:10:46.550Z,97236.70
2023-02-25T10:13:44.264Z,97229.39
2023-02-25T10:16:20.547Z,97224.48
2023-02-25T10:19:06.206Z,97233.02
2023-02-25T10:22:16.557Z,97247.02
2023-02-25T10:24:46.002Z,97240.29
2023-02-25T10:27:20.603Z,97229.45
2023-02-25T10:29:55.379Z,97221.49
2023-02-25T10:32:27.146Z,97211.23
2023-02-25T10:34:57.426Z,97210.52
2023-02-25T10:37:34.544Z,97201.25
2023-02-25T10:40:04.758Z,97178.65
2023-02-25T10:42:31.815Z,97174.72
2023-02-25T10:45:01.393Z,97167.62
2023-02-25T10:47:33.001Z,97181.95
2023-02-25T10:50:15.471Z,97156.66
2023-02-25T10:52:53.868Z,97150.77
2023-02-25T10:55:43.925Z,97143.85
2023-02-25T10:58:40.408Z,97132.88
2023-02-25T11:01:15.219Z,97135.46
2023-02-25T11:04:04.983Z,97122.63
2023-02-25T11:06:36.388Z,97126.85
2023-02-25T11:09:27.320Z,97123.83
2023-02-25T11:12:01.682Z,97117.08
2023-02-25T11:14:32.970Z,97130.84
2023-02-25T11:17:03.639Z,97127.89
2023-02-25T11:19:42.706Z,97125.92
2023-02-25T11:22:31.468Z,97125.57
2023-02-25T11:25:00.357Z,97108.29
2023-02-25T11:27:39.130Z,97108.90
2023-02-25T11:30:14.060Z,97108.72
2023-02-25T11:32:47.945Z,97097.16
2023-02-25T11:35:19.740Z,97097.06
2023-02-25T11:37:49.425Z,97090.70
2023-02-25T11:40:22.495Z,97079.38
2023-02-25T11:42:59.901Z,97075.57
2023-02-25T11:45:31.716Z,97077.14
2023-02-25T11:47:58.719Z,97076.91
2023-02-25T11:50:38.390Z,97078.13
2023-02-25T11:53:28.754Z,97084.21
2023-02-25T11:56:01.586Z,97074.47
2023-02-25T11:58:49.655Z,97071.78
2023-02-25T12:01:38.839Z,97066.96
2023-02-25T12:04:37.798Z,97076.84
2023-02-25T12:07:10.688Z,97070.70
2023-02-25T12:09:44.660Z,97063.48
2023-02-25T12:12:34.410Z,97065.77
2023-02-25T12:15:20.134Z,97056.90
2023-02-25T12:20:45.967Z,97046.98
2023-02-25T12:23:27.961Z,97051.69
2023-02-25T12:26:04.002Z,97059.77
2023-02-25T12:28:43.753Z,97048.30
2023-02-25T12:31:34.895Z,97052.45
2023-02-25T12:34:22.798Z,97045.56
2023-02-25T12:37:17.550Z,97043.16
2023-02-25T12:40:28.383Z,97040.31
2023-02-25T12:43:34.043Z,97041.55
2023-02-25T12:46:39.238Z,97045.59
2023-02-25T12:49:20.124Z,97033.58
2023-02-25T12:51:55.841Z,97039.90
2023-02-25T12:54:27.828Z,97034.06
2023-02-25T12:57:16.672Z,97022.61
2023-02-25T13:00:07.483Z,97019.24
2023-02-25T13:02:44.370Z,97025.33
2023-02-25T13:05:37.868Z,97020.10
2023-02-25T13:08:04.751Z,97015.27
2023-02-25T13:10:53.938Z,97014.54
2023-02-25T13:13:51.529Z,97010.13
2023-02-25T13:16:47.474Z,97007.54
2023-02-25T13:19:47.400Z,97002.77
2023-02-25T13:22:39.047Z,96998.48
2023-02-25T13:25:19.172Z,96996.40
2023-02-25T13:28:00.433Z,96996.52
2023-02-25T13:30:40.341Z,96993.20
2023-02-25T13:33:41.526Z,96987.34
2023-02-25T13:36:18.438Z,96990.86
2023-02-25T13:39:03.734Z,96980.52
2023-02-25T13:41:36.438Z,96972.17
2023-02-25T13:44:15.010Z,96973.45
2023-02-25T13:47:09.534Z,96964.85
2023-02-25T13:50:01.149Z,96964.52
2023-02-25T13:52:36.476Z,96961.19
2023-02-25T13:55:14.383Z,96953.12
2023-02-25T13:57:45.010Z,96953.13
2023-02-25T14:00:41.364Z,96950.47
2023-02-25T14:03:46.085Z,96942.98
2023-02-25T14:06:37.552Z,96931.34
2023-02-25T14:09:28.325Z,96925.63
2023-02-25T14:12:23.973Z,96929.66
2023-02-25T14:14:55.007Z,96918.46
2023-02-25T14:18:04.301Z,96909.38
2023-02-25T14:20:39.840Z,96909.52
2023-02-25T14:23:12.543Z,96901.50
2023-02-25T14:26:37.308Z,96898.23
2023-02-25T14:29:41.446Z,96891.21
2023-02-25T14:32:35.862Z,96888.06
2023-02-25T14:35:24.820Z,96898.48
2023-02-25T14:38:17.465Z,96886.66
2023-02-25T14:41:19.096Z,96880.59
2023-02-25T14:43:45.980Z,96878.31
2023-02-25T14:46:30.608Z,96877.63
2023-02-25T14:49:03.821Z,96867.66
2023-02-25T14:51:50.229Z,96862.77
2023-02-25T14:54:35.298Z,96856.53
2023-02-25T14:57:14.786Z,96845.69
2023-02-25T15:00:13.852Z,96839.52
2023-02-25T15:03:23.357Z,96828.06
2023-02-25T15:06:33.925Z,96823.80
2023-02-25T15:09:23.416Z,96821.28
2023-02-25T15:11:56.180Z,96816.48
2023-02-25T15:14:58.457Z,96814.18
2023-02-25T15:17:32.496Z,96814.63
2023-02-25T15:20:09.216Z,96827.42
2023-02-25T15:22:41.329Z,96826.16
2023-02-25T15:25:20.302Z,96825.19
2023-02-25T15:27:56.777Z,96823.09
2023-02-25T15:30:25.064Z,96816.05
2023-02-25T15:32:52.796Z,96809.79
2023-02-25T15:35:22.424Z,96810.92
2023-02-25T15:37:49.413Z,96801.48
2023-02-25T15:40:16.031Z,96796.30
2023-02-25T15:42:53.632Z,96799.46
2023-02-25T15:45:27.311Z,96791.55
2023-02-25T15:48:06.873Z,96791.55
2023-02-25T15:50:43.392Z,96798.61
2023-02-25T15:53:10.992Z,96794.41
2023-02-25T15:55:42.542Z,96800.39
2023-02-25T15:58:24.604Z,96824.48
2023-02-25T16:00:55.050Z,96919.52
2023-02-25T16:03:30.733Z,96974.05
2023-02-25T16:06:01.685Z,96985.40
2023-02-25T16:08:30.937Z,96996.59
2023-02-25T16:10:57.863Z,97005.23
2023-02-25T16:13:32.842Z,97006.37
2023-02-25T16:15:59.599Z,97004.95
2023-02-25T16:18:35.744Z,96993.29
2023-02-25T16:21:07.725Z,96991.84
2023-02-25T16:23:38.592Z,96997.06
2023-02-25T16:26:13.393Z,96990.94
2023-02-25T16:28:53.493Z,96989.06
2023-02-25T16:31:33.067Z,96981.52
2023-02-25T16:34:17.229Z,96980.42
2023-02-25T16:37:02.867Z,96988.12
2023-02-25T16:39:29.684Z,96994.73
2023-02-25T16:42:04.204Z,96995.89
2023-02-25T16:44:35.633Z,96996.00
2023-02-25T16:47:04.095Z,96993.70
2023-02-25T16:49:32.177Z,96983.79
2023-02-25T16:51:58.862Z,96966.44
2023-02-25T16:54:35.555Z,96968.14
2023-02-25T16:57:06.271Z,96974.02
2023-02-25T16:59:34.896Z,96998.01
2023-02-25T17:02:13.924Z,97010.34
2023-02-25T17:04:51.884Z,97032.52
2023-02-25T17:07:27.386Z,97067.77
2023-02-25T17:09:55.879Z,97106.80
2023-02-25T17:12:47.020Z,97112.87
2023-02-25T17:15:29.219Z,97110.35
2023-02-25T17:18:03.067Z,97119.95
2023-02-25T17:20:31.931Z,97121.90
2023-02-25T17:22:59.106Z,97114.33
2023-02-25T17:25:30.964Z,97119.46
2023-02-25T17:27:59.579Z,97118.53
2023-02-25T17:30:41.126Z,97103.19
2023-02-25T17:33:17.742Z,97111.67
2023-02-25T17:35:45.419Z,97132.80
2023-02-25T17:38:16.671Z,97128.11
2023-02-25T17:40:44.759Z,97138.67
2023-02-25T17:43:26.058Z,97149.36
2023-02-25T17:45:55.471Z,97159.04
2023-02-25T17:48:28.210Z,97165.63
2023-02-25T17:50:59.513Z,97156.85
2023-02-25T17:53:50.169Z,97162.02
2023-02-25T17:56:34.837Z,97145.02
2023-02-25T17:59:14.116Z,97130.11
2023-02-25T18:01:50.530Z,97126.55
2023-02-25T18:04:38.366Z,97129.52
2023-02-25T18:07:33.993Z,97137.46
2023-02-25T18:10:01.197Z,97158.45
2023-02-25T18:12:35.865Z,97180.16
2023-02-25T18:15:17.574Z,97195.34
2023-02-25T18:17:54.893Z,97211.17
2023-02-25T18:20:37.662Z,97217.97
2023-02-25T18:23:08.356Z,97208.20
2023-02-25T18:25:38.063Z,97207.48
2023-02-25T18:28:09.382Z,97217.19
2023-02-25T18:30:37.089Z,97238.52
2023-02-25T18:33:04.470Z,97257.56
2023-02-25T18:35:31.389Z,97270.59
2023-02-25T18:37:58.695Z,97270.20
2023-02-25T18:40:31.942Z,97267.00
2023-02-25T18:42:58.698Z,97258.73
2023-02-25T18:45:26.422Z,97253.14
2023-02-25T18:47:54.408Z,97267.20
2023-02-25T18:50:21.088Z,97264.16
2023-02-25T18:52:47.732Z,97267.59
2023-02-25T18:55:26.671Z,97265.46
2023-02-25T18:57:53.765Z,97271.27
2023-02-25T19:00:22.008Z,97270.16
2023-02-25T19:02:50.794Z,97278.06
2023-02-25T19:05:18.885Z,97280.28
2023-02-25T19:07:45.496Z,97288.38
2023-02-25T19:10:20.624Z,97293.17
2023-02-25T19:12:49.041Z,97293.50
2023-02-25T19:15:19.511Z,97295.33
2023-02-25T19:17:47.323Z,97298.06
2023-02-25T19:20:17.878Z,97305.42
2023-02-25T19:22:46.909Z,97312.67
2023-02-25T19:25:29.754Z,97319.14
2023-02-25T19:27:57.009Z,97328.95
2023-02-25T19:30:25.690Z,97330.13
2023-02-25T19:32:55.982Z,97332.54
2023-02-25T19:35:23.671Z,97343.27
2023-02-25T19:37:50.236Z,97344.19
2023-02-25T19:40:17.470Z,97348.61
2023-02-25T19:42:44.351Z,97353.26
2023-02-25T19:45:13.739Z,97354.38
2023-02-25T19:47:40.683Z,97358.75
2023-02-25T19:50:11.623Z,97356.08
2023-02-25T19:52:39.196Z,97359.50
2023-02-25T19:55:06.782Z,97360.55
2023-02-25T19:57:34.029Z,97365.42
2023-02-25T20:00:00.701Z,97376.08
2023-02-25T20:02:27.438Z,97377.34
2023-02-25T20:04:54.037Z,97386.60
2023-02-25T20:07:21.009Z,97392.55
2023-02-25T20:09:48.310Z,97395.65
2023-02-25T20:12:18.769Z,97392.98
2023-02-25T20:14:46.602Z,97396.98
2023-02-25T20:17:13.411Z,97399.27
2023-02-25T20:19:41.438Z,97409.14
2023-02-25T20:22:09.225Z,97405.16
2023-02-25T20:24:36.302Z,97405.69
2023-02-25T20:27:03.183Z,97410.01
2023-02-25T20:29:30.157Z,97411.64
2023-02-25T20:31:57.022Z,97412.48
2023-02-25T20:34:25.786Z,97410.34
2023-02-25T20:37:18.936Z,97412.55
2023-02-25T20:39:47.332Z,97419.55
2023-02-25T20:42:17.586Z,97431.48
2023-02-25T20:44:44.397Z,97431.02
2023-02-25T20:47:22.864Z,97440.30
2023-02-25T20:49:51.772Z,97442.75
2023-02-25T20:52:19.384Z,97449.16
2023-02-25T20:54:46.294Z,97444.16
2023-02-25T20:57:15.364Z,97452.27
2023-02-25T20:59:42.585Z,97450.46
2023-02-25T21:02:09.695Z,97456.70
2023-02-25T21:04:37.665Z,97453.00
2023-02-25T21:07:04.428Z,97460.02
2023-02-25T21:09:33.157Z,97463.58
2023-02-25T21:12:01.135Z,97465.52
2023-02-25T21:14:28.061Z,97470.86
2023-02-25T21:16:57.318Z,97480.55
2023-02-25T21:19:26.202Z,97486.05
2023-02-25T21:21:57.417Z,97492.32
2023-02-25T21:24:26.694Z,97498.70
2023-02-25T21:26:54.061Z,97501.16
2023-02-25T21:29:21.755Z,97502.89
2023-02-25T21:31:49.170Z,97505.73
2023-02-25T21:34:17.391Z,97512.07
2023-02-25T21:36:44.914Z,97516.15
2023-02-25T21:39:11.950Z,97523.94
2023-02-25T21:41:43.211Z,97529.35
2023-02-25T21:44:12.789Z,97531.91
2023-02-25T21:46:40.190Z,97536.70
2023-02-25T21:49:07.124Z,97539.75
2023-02-25T21:51:35.995Z,97547.05
2023-02-25T21:54:03.051Z,97547.48
2023-02-25T21:56:30.251Z,97551.45
2023-02-25T21:58:58.993Z,97551.05
2023-02-25T22:01:45.914Z,97552.90
2023-02-25T22:04:13.365Z,97554.46
2023-02-25T22:06:42.501Z,97557.41
2023-02-25T22:09:10.137Z,97560.30
2023-02-25T22:11:37.213Z,97570.59
2023-02-25T22:14:06.273Z,97578.64
2023-02-25T22:16:35.101Z,97571.98
2023-02-25T22:19:02.171Z,97573.27
2023-02-25T22:21:30.976Z,97572.46
2023-02-25T22:23:59.311Z,97574.85
2023-02-25T22:26:32.065Z,97574.08
2023-02-25T22:29:01.171Z,97571.23
2023-02-25T22:31:28.192Z,97575.26
2023-02-25T22:33:55.432Z,97577.10
2023-02-25T22:36:22.765Z,97578.16
2023-02-25T22:38:50.347Z,97583.35
2023-02-25T22:41:25.329Z,97587.10
2023-02-25T22:43:52.217Z,97585.02
2023-02-25T22:46:27.663Z,97584.53
2023-02-25T22:48:54.753Z,97584.67
2023-02-25T22:51:26.316Z,97589.56
2023-02-25T22:53:53.569Z,97593.91
2023-02-25T22:56:20.335Z,97592.10
2023-02-25T22:58:47.627Z,97596.73
2023-02-25T23:01:15.636Z,97597.16
2023-02-25T23:03:43.486Z,97596.08
2023-02-25T23:06:11.023Z,97596.91
2023-02-25T23:08:38.519Z,97595.41
2023-02-25T23:11:10.822Z,97604.80
2023-02-25T23:13:45.299Z,97612.20
2023-02-25T23:16:16.141Z,97618.77
2023-02-25T23:18:43.971Z,97625.52
2023-02-25T23:21:15.723Z,97622.52
2023-02-25T23:23:42.940Z,97621.21
2023-02-25T23:26:11.696Z,97622.23
2023-02-25T23:28:39.307Z,97637.88
2023-02-25T23:31:18.661Z,97638.02
2023-02-25T23:33:45.682Z,97632.20
2023-02-25T23:36:12.446Z,97626.31
2023-02-25T23:38:39.112Z,97621.00
2023-02-25T23:41:07.639Z,97612.75
2023-02-25T23:43:34.638Z,97604.43
2023-02-25T23:46:06.448Z,97606.29
2023-02-25T23:48:33.343Z,97617.30
2023-02-25T23:51:05.075Z,97630.84
2023-02-25T23:53:32.728Z,97635.15
2023-02-25T23:56:04.925Z,97629.98
2023-02-25T23:58:31.622Z,97627.86
